sensor_id;sensor_type;location;lat;lon;timestamp;temperature;humidity
13817;DHT22;6979;52.116;5.286;2023-05-07T00:00:59;19.90;99.90
13817;DHT22;6979;52.116;5.286;2023-05-07T00:03:26;19.90;99.90
13817;DHT22;6979;52.116;5.286;2023-05-07T00:05:53;19.90;99.90
13817;DHT22;6979;52.116;5.286;2023-05-07T00:08:22;19.80;99.90
13817;DHT22;6979;52.116;5.286;2023-05-07T00:10:49;19.80;99.90
13817;DHT22;6979;52.116;5.286;2023-05-07T00:13:16;19.80;99.90
13817;DHT22;6979;52.116;5.286;2023-05-07T00:15:43;19.80;99.90
13817;DHT22;6979;52.116;5.286;2023-05-07T00:18:11;19.80;99.90
13817;DHT22;6979;52.116;5.286;2023-05-07T00:20:38;19.80;99.90
13817;DHT22;6979;52.116;5.286;2023-05-07T00:23:11;19.80;99.90
13817;DHT22;6979;52.116;5.286;2023-05-07T00:25:39;19.70;99.90
13817;DHT22;6979;52.116;5.286;2023-05-07T00:28:06;19.70;99.90
13817;DHT22;6979;52.116;5.286;2023-05-07T00:30:32;19.70;99.90
13817;DHT22;6979;52.116;5.286;2023-05-07T00:33:01;19.70;99.90
13817;DHT22;6979;52.116;5.286;2023-05-07T00:35:30;19.60;99.90
13817;DHT22;6979;52.116;5.286;2023-05-07T00:37:57;19.60;99.90
13817;DHT22;6979;52.116;5.286;2023-05-07T00:40:24;19.60;99.90
13817;DHT22;6979;52.116;5.286;2023-05-07T00:42:51;19.60;99.90
13817;DHT22;6979;52.116;5.286;2023-05-07T00:45:23;19.60;99.90
13817;DHT22;6979;52.116;5.286;2023-05-07T00:47:54;19.50;99.90
13817;DHT22;6979;52.116;5.286;2023-05-07T00:50:22;19.50;99.90
13817;DHT22;6979;52.116;5.286;2023-05-07T00:52:50;19.50;99.90
13817;DHT22;6979;52.116;5.286;2023-05-07T00:55:17;19.50;99.90
13817;DHT22;6979;52.116;5.286;2023-05-07T00:57:44;19.50;99.90
13817;DHT22;6979;52.116;5.286;2023-05-07T01:00:12;19.50;99.90
13817;DHT22;6979;52.116;5.286;2023-05-07T01:02:39;19.50;99.90
13817;DHT22;6979;52.116;5.286;2023-05-07T01:05:10;19.50;99.90
13817;DHT22;6979;52.116;5.286;2023-05-07T01:07:38;19.50;99.90
13817;DHT22;6979;52.116;5.286;2023-05-07T01:10:09;19.50;99.90
13817;DHT22;6979;52.116;5.286;2023-05-07T01:12:42;19.50;99.90
13817;DHT22;6979;52.116;5.286;2023-05-07T01:15:10;19.50;99.90
13817;DHT22;6979;52.116;5.286;2023-05-07T01:17:41;19.50;99.90
13817;DHT22;6979;52.116;5.286;2023-05-07T01:20:14;19.50;99.90
13817;DHT22;6979;52.116;5.286;2023-05-07T01:22:44;19.60;99.90
13817;DHT22;6979;52.116;5.286;2023-05-07T01:25:15;19.60;99.90
13817;DHT22;6979;52.116;5.286;2023-05-07T01:27:47;19.60;99.90
13817;DHT22;6979;52.116;5.286;2023-05-07T01:30:14;19.60;99.90
13817;DHT22;6979;52.116;5.286;2023-05-07T01:32:44;19.60;99.90
13817;DHT22;6979;52.116;5.286;2023-05-07T01:35:16;19.60;99.90
13817;DHT22;6979;52.116;5.286;2023-05-07T01:37:46;19.60;99.90
13817;DHT22;6979;52.116;5.286;2023-05-07T01:40:14;19.60;99.90
13817;DHT22;6979;52.116;5.286;2023-05-07T01:42:43;19.60;99.90
13817;DHT22;6979;52.116;5.286;2023-05-07T01:45:10;19.60;99.90
13817;DHT22;6979;52.116;5.286;2023-05-07T01:47:38;19.60;99.90
13817;DHT22;6979;52.116;5.286;2023-05-07T01:50:06;19.70;99.90
13817;DHT22;6979;52.116;5.286;2023-05-07T01:52:34;19.70;99.90
13817;DHT22;6979;52.116;5.286;2023-05-07T01:55:06;19.60;99.90
13817;DHT22;6979;52.116;5.286;2023-05-07T01:57:33;19.60;99.90
13817;DHT22;6979;52.116;5.286;2023-05-07T02:00:00;19.60;99.90
13817;DHT22;6979;52.116;5.286;2023-05-07T02:02:28;19.50;99.90
13817;DHT22;6979;52.116;5.286;2023-05-07T02:05:04;19.60;99.90
13817;DHT22;6979;52.116;5.286;2023-05-07T02:07:31;19.50;99.90
13817;DHT22;6979;52.116;5.286;2023-05-07T02:09:58;19.50;99.90
13817;DHT22;6979;52.116;5.286;2023-05-07T02:12:33;19.50;99.90
13817;DHT22;6979;52.116;5.286;2023-05-07T02:15:00;19.50;99.90
13817;DHT22;6979;52.116;5.286;2023-05-07T02:17:27;19.50;99.90
13817;DHT22;6979;52.116;5.286;2023-05-07T02:19:57;19.50;99.90
13817;DHT22;6979;52.116;5.286;2023-05-07T02:22:25;19.50;99.90
13817;DHT22;6979;52.116;5.286;2023-05-07T02:24:52;19.50;99.90
13817;DHT22;6979;52.116;5.286;2023-05-07T02:27:19;19.60;99.90
13817;DHT22;6979;52.116;5.286;2023-05-07T02:29:47;19.60;99.90
13817;DHT22;6979;52.116;5.286;2023-05-07T02:32:17;19.60;99.90
13817;DHT22;6979;52.116;5.286;2023-05-07T02:34:44;19.60;99.90
13817;DHT22;6979;52.116;5.286;2023-05-07T02:37:11;19.60;99.90
13817;DHT22;6979;52.116;5.286;2023-05-07T02:39:38;19.60;99.90
13817;DHT22;6979;52.116;5.286;2023-05-07T02:42:04;19.60;99.90
13817;DHT22;6979;52.116;5.286;2023-05-07T02:44:37;19.60;99.90
13817;DHT22;6979;52.116;5.286;2023-05-07T02:47:05;19.60;99.90
13817;DHT22;6979;52.116;5.286;2023-05-07T02:49:34;19.60;99.90
13817;DHT22;6979;52.116;5.286;2023-05-07T02:52:01;19.60;99.90
13817;DHT22;6979;52.116;5.286;2023-05-07T02:54:28;19.60;99.90
13817;DHT22;6979;52.116;5.286;2023-05-07T02:56:55;19.60;99.90
13817;DHT22;6979;52.116;5.286;2023-05-07T02:59:23;19.60;99.90
13817;DHT22;6979;52.116;5.286;2023-05-07T03:01:51;19.60;99.90
13817;DHT22;6979;52.116;5.286;2023-05-07T03:04:20;19.60;99.90
13817;DHT22;6979;52.116;5.286;2023-05-07T03:06:46;19.60;99.90
13817;DHT22;6979;52.116;5.286;2023-05-07T03:09:15;19.60;99.90
13817;DHT22;6979;52.116;5.286;2023-05-07T03:11:42;19.60;99.90
13817;DHT22;6979;52.116;5.286;2023-05-07T03:14:09;19.60;99.90
13817;DHT22;6979;52.116;5.286;2023-05-07T03:16:36;19.60;99.90
13817;DHT22;6979;52.116;5.286;2023-05-07T03:19:03;19.60;99.90
13817;DHT22;6979;52.116;5.286;2023-05-07T03:21:32;19.60;99.90
13817;DHT22;6979;52.116;5.286;2023-05-07T03:24:00;19.50;99.90
13817;DHT22;6979;52.116;5.286;2023-05-07T03:26:27;19.50;99.90
13817;DHT22;6979;52.116;5.286;2023-05-07T03:28:54;19.50;99.90
13817;DHT22;6979;52.116;5.286;2023-05-07T03:31:24;19.50;99.90
13817;DHT22;6979;52.116;5.286;2023-05-07T03:33:54;19.50;99.90
13817;DHT22;6979;52.116;5.286;2023-05-07T03:36:22;19.50;99.90
13817;DHT22;6979;52.116;5.286;2023-05-07T03:38:53;19.50;99.90
13817;DHT22;6979;52.116;5.286;2023-05-07T03:41:23;19.50;99.90
13817;DHT22;6979;52.116;5.286;2023-05-07T03:43:51;19.50;99.90
13817;DHT22;6979;52.116;5.286;2023-05-07T03:46:18;19.50;99.90
13817;DHT22;6979;52.116;5.286;2023-05-07T03:48:45;19.40;99.90
13817;DHT22;6979;52.116;5.286;2023-05-07T03:51:13;19.40;99.90
13817;DHT22;6979;52.116;5.286;2023-05-07T03:53:40;19.40;99.90
13817;DHT22;6979;52.116;5.286;2023-05-07T03:56:09;19.40;99.90
13817;DHT22;6979;52.116;5.286;2023-05-07T03:58:38;19.40;99.90
13817;DHT22;6979;52.116;5.286;2023-05-07T04:01:08;19.40;99.90
13817;DHT22;6979;52.116;5.286;2023-05-07T04:03:35;19.40;99.90
13817;DHT22;6979;52.116;5.286;2023-05-07T04:06:03;19.40;99.90
13817;DHT22;6979;52.116;5.286;2023-05-07T04:08:33;19.40;99.90
13817;DHT22;6979;52.116;5.286;2023-05-07T04:11:00;19.40;99.90
13817;DHT22;6979;52.116;5.286;2023-05-07T04:13:35;19.40;99.90
13817;DHT22;6979;52.116;5.286;2023-05-07T04:16:05;19.40;99.90
13817;DHT22;6979;52.116;5.286;2023-05-07T04:18:34;19.40;99.90
13817;DHT22;6979;52.116;5.286;2023-05-07T04:21:04;19.40;99.90
13817;DHT22;6979;52.116;5.286;2023-05-07T04:23:33;19.40;99.90
13817;DHT22;6979;52.116;5.286;2023-05-07T04:26:03;19.40;99.90
13817;DHT22;6979;52.116;5.286;2023-05-07T04:28:43;19.40;99.90
13817;DHT22;6979;52.116;5.286;2023-05-07T04:31:11;19.40;99.90
13817;DHT22;6979;52.116;5.286;2023-05-07T04:33:38;19.40;99.90
13817;DHT22;6979;52.116;5.286;2023-05-07T04:36:08;19.40;99.90
13817;DHT22;6979;52.116;5.286;2023-05-07T04:38:43;19.40;99.90
13817;DHT22;6979;52.116;5.286;2023-05-07T04:41:12;19.40;99.90
13817;DHT22;6979;52.116;5.286;2023-05-07T04:43:45;19.40;99.90
13817;DHT22;6979;52.116;5.286;2023-05-07T04:46:14;19.50;99.90
13817;DHT22;6979;52.116;5.286;2023-05-07T04:48:42;19.40;99.90
13817;DHT22;6979;52.116;5.286;2023-05-07T04:51:09;19.50;99.90
13817;DHT22;6979;52.116;5.286;2023-05-07T04:53:40;19.50;99.90
13817;DHT22;6979;52.116;5.286;2023-05-07T04:56:08;19.50;99.90
13817;DHT22;6979;52.116;5.286;2023-05-07T04:58:40;19.50;99.90
13817;DHT22;6979;52.116;5.286;2023-05-07T05:01:12;19.50;99.90
13817;DHT22;6979;52.116;5.286;2023-05-07T05:03:41;19.50;99.90
13817;DHT22;6979;52.116;5.286;2023-05-07T05:06:08;19.50;99.90
13817;DHT22;6979;52.116;5.286;2023-05-07T05:08:34;19.60;99.90
13817;DHT22;6979;52.116;5.286;2023-05-07T05:11:03;19.60;99.90
13817;DHT22;6979;52.116;5.286;2023-05-07T05:13:32;19.60;99.90
13817;DHT22;6979;52.116;5.286;2023-05-07T05:16:01;19.60;99.90
13817;DHT22;6979;52.116;5.286;2023-05-07T05:18:32;19.60;99.90
13817;DHT22;6979;52.116;5.286;2023-05-07T05:20:59;19.60;99.90
13817;DHT22;6979;52.116;5.286;2023-05-07T05:23:27;19.60;99.90
13817;DHT22;6979;52.116;5.286;2023-05-07T05:25:55;19.70;99.90
13817;DHT22;6979;52.116;5.286;2023-05-07T05:28:25;19.70;99.90
13817;DHT22;6979;52.116;5.286;2023-05-07T05:30:53;19.60;99.90
13817;DHT22;6979;52.116;5.286;2023-05-07T05:33:21;19.60;99.90
13817;DHT22;6979;52.116;5.286;2023-05-07T05:35:49;19.70;99.90
13817;DHT22;6979;52.116;5.286;2023-05-07T05:38:16;19.70;99.90
13817;DHT22;6979;52.116;5.286;2023-05-07T05:40:43;19.70;99.90
13817;DHT22;6979;52.116;5.286;2023-05-07T05:43:10;19.70;99.90
13817;DHT22;6979;52.116;5.286;2023-05-07T05:45:38;19.70;99.90
13817;DHT22;6979;52.116;5.286;2023-05-07T05:48:05;19.70;99.90
13817;DHT22;6979;52.116;5.286;2023-05-07T05:50:33;19.70;99.90
13817;DHT22;6979;52.116;5.286;2023-05-07T05:53:03;19.70;99.90
13817;DHT22;6979;52.116;5.286;2023-05-07T05:55:30;19.70;99.90
13817;DHT22;6979;52.116;5.286;2023-05-07T05:57:58;19.70;99.90
13817;DHT22;6979;52.116;5.286;2023-05-07T06:00:25;19.70;99.90
13817;DHT22;6979;52.116;5.286;2023-05-07T06:03:01;19.70;99.90
13817;DHT22;6979;52.116;5.286;2023-05-07T06:05:28;19.70;99.90
13817;DHT22;6979;52.116;5.286;2023-05-07T06:07:56;19.70;99.90
13817;DHT22;6979;52.116;5.286;2023-05-07T06:10:25;19.70;99.90
13817;DHT22;6979;52.116;5.286;2023-05-07T06:12:53;19.60;99.90
13817;DHT22;6979;52.116;5.286;2023-05-07T06:15:20;19.60;99.90
13817;DHT22;6979;52.116;5.286;2023-05-07T06:17:47;19.60;99.90
13817;DHT22;6979;52.116;5.286;2023-05-07T06:20:15;19.50;99.90
13817;DHT22;6979;52.116;5.286;2023-05-07T06:22:42;19.50;99.90
13817;DHT22;6979;52.116;5.286;2023-05-07T06:25:10;19.50;99.90
13817;DHT22;6979;52.116;5.286;2023-05-07T06:27:39;19.50;99.90
13817;DHT22;6979;52.116;5.286;2023-05-07T06:30:07;19.50;99.90
13817;DHT22;6979;52.116;5.286;2023-05-07T06:32:34;19.50;99.90
13817;DHT22;6979;52.116;5.286;2023-05-07T06:35:00;19.50;99.90
13817;DHT22;6979;52.116;5.286;2023-05-07T06:37:27;19.50;99.90
13817;DHT22;6979;52.116;5.286;2023-05-07T06:40:02;19.50;99.90
13817;DHT22;6979;52.116;5.286;2023-05-07T06:42:30;19.60;99.90
13817;DHT22;6979;52.116;5.286;2023-05-07T06:45:07;19.60;99.90
13817;DHT22;6979;52.116;5.286;2023-05-07T06:47:34;19.60;99.90
13817;DHT22;6979;52.116;5.286;2023-05-07T06:50:01;19.70;99.90
13817;DHT22;6979;52.116;5.286;2023-05-07T06:52:31;19.70;99.90
13817;DHT22;6979;52.116;5.286;2023-05-07T06:54:58;19.70;99.90
13817;DHT22;6979;52.116;5.286;2023-05-07T06:57:26;19.80;99.90
13817;DHT22;6979;52.116;5.286;2023-05-07T06:59:53;19.80;99.90
13817;DHT22;6979;52.116;5.286;2023-05-07T07:02:22;19.90;99.90
13817;DHT22;6979;52.116;5.286;2023-05-07T07:04:49;20.00;99.90
13817;DHT22;6979;52.116;5.286;2023-05-07T07:07:19;20.00;99.90
13817;DHT22;6979;52.116;5.286;2023-05-07T07:09:48;20.10;99.90
13817;DHT22;6979;52.116;5.286;2023-05-07T07:12:18;20.20;99.90
13817;DHT22;6979;52.116;5.286;2023-05-07T07:14:50;20.20;99.90
13817;DHT22;6979;52.116;5.286;2023-05-07T07:17:17;20.30;99.90
13817;DHT22;6979;52.116;5.286;2023-05-07T07:19:46;20.30;99.90
13817;DHT22;6979;52.116;5.286;2023-05-07T07:22:13;20.40;99.90
13817;DHT22;6979;52.116;5.286;2023-05-07T07:24:40;20.50;99.90
13817;DHT22;6979;52.116;5.286;2023-05-07T07:27:11;20.50;99.90
13817;DHT22;6979;52.116;5.286;2023-05-07T07:29:38;20.60;99.90
13817;DHT22;6979;52.116;5.286;2023-05-07T07:32:08;20.60;99.90
13817;DHT22;6979;52.116;5.286;2023-05-07T07:34:35;20.60;99.90
13817;DHT22;6979;52.116;5.286;2023-05-07T07:37:03;20.60;99.90
13817;DHT22;6979;52.116;5.286;2023-05-07T07:39:32;20.70;99.90
13817;DHT22;6979;52.116;5.286;2023-05-07T07:41:59;20.70;99.90
13817;DHT22;6979;52.116;5.286;2023-05-07T07:44:28;20.80;99.90
13817;DHT22;6979;52.116;5.286;2023-05-07T07:47:00;20.80;99.90
13817;DHT22;6979;52.116;5.286;2023-05-07T07:49:27;20.90;99.90
13817;DHT22;6979;52.116;5.286;2023-05-07T07:51:56;20.90;99.90
13817;DHT22;6979;52.116;5.286;2023-05-07T07:54:26;21.00;99.90
13817;DHT22;6979;52.116;5.286;2023-05-07T07:56:55;21.00;99.90
13817;DHT22;6979;52.116;5.286;2023-05-07T07:59:23;21.10;99.90
13817;DHT22;6979;52.116;5.286;2023-05-07T08:01:52;21.10;99.90
13817;DHT22;6979;52.116;5.286;2023-05-07T08:04:23;21.20;99.90
13817;DHT22;6979;52.116;5.286;2023-05-07T08:06:51;21.20;99.90
13817;DHT22;6979;52.116;5.286;2023-05-07T08:09:20;21.30;99.90
13817;DHT22;6979;52.116;5.286;2023-05-07T08:11:49;21.30;99.90
13817;DHT22;6979;52.116;5.286;2023-05-07T08:14:17;21.30;99.90
13817;DHT22;6979;52.116;5.286;2023-05-07T08:16:46;21.40;99.90
13817;DHT22;6979;52.116;5.286;2023-05-07T08:19:13;21.40;99.90
13817;DHT22;6979;52.116;5.286;2023-05-07T08:21:41;21.50;99.90
13817;DHT22;6979;52.116;5.286;2023-05-07T08:24:10;21.60;99.90
13817;DHT22;6979;52.116;5.286;2023-05-07T08:26:39;21.60;99.90
13817;DHT22;6979;52.116;5.286;2023-05-07T08:29:09;21.70;99.90
13817;DHT22;6979;52.116;5.286;2023-05-07T08:31:35;21.70;99.90
13817;DHT22;6979;52.116;5.286;2023-05-07T08:34:04;21.80;99.90
13817;DHT22;6979;52.116;5.286;2023-05-07T08:36:32;21.90;99.90
13817;DHT22;6979;52.116;5.286;2023-05-07T08:38:59;21.90;99.90
13817;DHT22;6979;52.116;5.286;2023-05-07T08:41:26;21.90;99.90
13817;DHT22;6979;52.116;5.286;2023-05-07T08:43:57;22.00;99.90
13817;DHT22;6979;52.116;5.286;2023-05-07T08:46:28;22.00;99.90
13817;DHT22;6979;52.116;5.286;2023-05-07T08:48:58;22.00;99.90
13817;DHT22;6979;52.116;5.286;2023-05-07T08:51:25;22.00;99.90
13817;DHT22;6979;52.116;5.286;2023-05-07T08:53:53;22.00;99.90
13817;DHT22;6979;52.116;5.286;2023-05-07T08:56:28;22.00;99.90
13817;DHT22;6979;52.116;5.286;2023-05-07T08:58:55;22.00;99.90
13817;DHT22;6979;52.116;5.286;2023-05-07T09:01:26;22.10;99.90
13817;DHT22;6979;52.116;5.286;2023-05-07T09:03:55;22.10;99.90
13817;DHT22;6979;52.116;5.286;2023-05-07T09:06:22;22.20;99.90
13817;DHT22;6979;52.116;5.286;2023-05-07T09:08:50;22.20;99.90
13817;DHT22;6979;52.116;5.286;2023-05-07T09:11:20;22.30;99.90
13817;DHT22;6979;52.116;5.286;2023-05-07T09:13:48;22.30;99.90
13817;DHT22;6979;52.116;5.286;2023-05-07T09:16:16;22.40;99.90
13817;DHT22;6979;52.116;5.286;2023-05-07T09:18:46;22.50;99.90
13817;DHT22;6979;52.116;5.286;2023-05-07T09:21:15;22.50;99.90
13817;DHT22;6979;52.116;5.286;2023-05-07T09:23:42;22.60;99.90
13817;DHT22;6979;52.116;5.286;2023-05-07T09:26:10;22.70;99.90
13817;DHT22;6979;52.116;5.286;2023-05-07T09:28:40;22.80;99.90
13817;DHT22;6979;52.116;5.286;2023-05-07T09:31:09;22.90;99.90
13817;DHT22;6979;52.116;5.286;2023-05-07T09:33:37;23.00;99.90
13817;DHT22;6979;52.116;5.286;2023-05-07T09:36:07;23.10;99.90
13817;DHT22;6979;52.116;5.286;2023-05-07T09:38:36;23.10;99.90
13817;DHT22;6979;52.116;5.286;2023-05-07T09:41:04;23.20;99.90
13817;DHT22;6979;52.116;5.286;2023-05-07T09:43:37;23.30;99.90
13817;DHT22;6979;52.116;5.286;2023-05-07T09:46:07;23.40;99.90
13817;DHT22;6979;52.116;5.286;2023-05-07T09:48:37;23.50;99.90
13817;DHT22;6979;52.116;5.286;2023-05-07T09:51:15;23.60;99.90
13817;DHT22;6979;52.116;5.286;2023-05-07T09:53:43;23.70;99.90
13817;DHT22;6979;52.116;5.286;2023-05-07T09:56:13;23.80;99.90
13817;DHT22;6979;52.116;5.286;2023-05-07T09:58:42;23.90;99.90
13817;DHT22;6979;52.116;5.286;2023-05-07T10:01:11;24.00;99.90
13817;DHT22;6979;52.116;5.286;2023-05-07T10:03:40;24.00;99.90
13817;DHT22;6979;52.116;5.286;2023-05-07T10:06:12;24.10;99.90
13817;DHT22;6979;52.116;5.286;2023-05-07T10:08:40;24.20;99.90
13817;DHT22;6979;52.116;5.286;2023-05-07T10:11:08;24.30;99.90
13817;DHT22;6979;52.116;5.286;2023-05-07T10:13:37;24.40;99.90
13817;DHT22;6979;52.116;5.286;2023-05-07T10:16:07;24.40;99.90
13817;DHT22;6979;52.116;5.286;2023-05-07T10:18:40;24.50;99.90
13817;DHT22;6979;52.116;5.286;2023-05-07T10:21:17;24.60;99.90
13817;DHT22;6979;52.116;5.286;2023-05-07T10:23:55;24.60;99.90
13817;DHT22;6979;52.116;5.286;2023-05-07T10:26:25;24.80;99.90
13817;DHT22;6979;52.116;5.286;2023-05-07T10:28:57;25.00;99.90
13817;DHT22;6979;52.116;5.286;2023-05-07T10:31:41;25.30;99.90
13817;DHT22;6979;52.116;5.286;2023-05-07T10:34:16;25.60;99.90
13817;DHT22;6979;52.116;5.286;2023-05-07T10:36:46;26.00;99.90
13817;DHT22;6979;52.116;5.286;2023-05-07T10:39:14;26.30;99.90
13817;DHT22;6979;52.116;5.286;2023-05-07T10:41:42;26.60;99.90
13817;DHT22;6979;52.116;5.286;2023-05-07T10:44:10;26.90;99.90
13817;DHT22;6979;52.116;5.286;2023-05-07T10:46:37;27.20;99.90
13817;DHT22;6979;52.116;5.286;2023-05-07T10:49:18;27.40;99.90
13817;DHT22;6979;52.116;5.286;2023-05-07T10:52:16;27.70;99.90
13817;DHT22;6979;52.116;5.286;2023-05-07T10:55:19;27.90;99.90
13817;DHT22;6979;52.116;5.286;2023-05-07T10:58:22;28.20;99.90
13817;DHT22;6979;52.116;5.286;2023-05-07T11:00:56;28.40;99.90
13817;DHT22;6979;52.116;5.286;2023-05-07T11:03:28;28.70;99.90
13817;DHT22;6979;52.116;5.286;2023-05-07T11:06:10;28.90;99.90
13817;DHT22;6979;52.116;5.286;2023-05-07T11:08:55;29.20;99.90
13817;DHT22;6979;52.116;5.286;2023-05-07T11:11:45;29.50;99.90
13817;DHT22;6979;52.116;5.286;2023-05-07T11:14:44;29.70;99.90
13817;DHT22;6979;52.116;5.286;2023-05-07T11:17:23;29.90;99.90
13817;DHT22;6979;52.116;5.286;2023-05-07T11:19:58;30.10;99.90
13817;DHT22;6979;52.116;5.286;2023-05-07T11:22:38;30.30;99.90
13817;DHT22;6979;52.116;5.286;2023-05-07T11:25:34;30.50;99.90
13817;DHT22;6979;52.116;5.286;2023-05-07T11:28:21;30.60;99.90
13817;DHT22;6979;52.116;5.286;2023-05-07T11:30:58;30.70;99.90
13817;DHT22;6979;52.116;5.286;2023-05-07T11:33:25;30.60;99.90
13817;DHT22;6979;52.116;5.286;2023-05-07T11:35:55;30.50;99.90
13817;DHT22;6979;52.116;5.286;2023-05-07T11:38:28;30.50;99.90
13817;DHT22;6979;52.116;5.286;2023-05-07T11:40:58;30.40;99.90
13817;DHT22;6979;52.116;5.286;2023-05-07T11:43:26;30.40;99.90
13817;DHT22;6979;52.116;5.286;2023-05-07T11:45:53;30.30;99.90
13817;DHT22;6979;52.116;5.286;2023-05-07T11:48:23;30.30;99.90
13817;DHT22;6979;52.116;5.286;2023-05-07T11:50:50;30.30;99.90
13817;DHT22;6979;52.116;5.286;2023-05-07T11:53:18;30.30;99.90
13817;DHT22;6979;52.116;5.286;2023-05-07T11:55:45;30.30;99.90
13817;DHT22;6979;52.116;5.286;2023-05-07T11:58:21;30.30;99.90
13817;DHT22;6979;52.116;5.286;2023-05-07T12:00:48;30.40;99.90
13817;DHT22;6979;52.116;5.286;2023-05-07T12:03:15;30.40;99.90
13817;DHT22;6979;52.116;5.286;2023-05-07T12:05:43;30.50;99.90
13817;DHT22;6979;52.116;5.286;2023-05-07T12:08:13;30.60;99.90
13817;DHT22;6979;52.116;5.286;2023-05-07T12:10:41;30.70;99.90
13817;DHT22;6979;52.116;5.286;2023-05-07T12:13:15;30.80;99.90
13817;DHT22;6979;52.116;5.286;2023-05-07T12:15:42;30.90;99.90
13817;DHT22;6979;52.116;5.286;2023-05-07T12:18:10;30.90;99.50
13817;DHT22;6979;52.116;5.286;2023-05-07T12:20:39;30.80;99.10
13817;DHT22;6979;52.116;5.286;2023-05-07T12:23:06;30.60;99.10
13817;DHT22;6979;52.116;5.286;2023-05-07T12:25:34;30.40;99.90
13817;DHT22;6979;52.116;5.286;2023-05-07T12:28:01;30.30;99.90
13817;DHT22;6979;52.116;5.286;2023-05-07T12:30:31;30.30;99.90
13817;DHT22;6979;52.116;5.286;2023-05-07T12:32:58;30.20;97.80
13817;DHT22;6979;52.116;5.286;2023-05-07T12:35:28;30.10;98.30
13817;DHT22;6979;52.116;5.286;2023-05-07T12:37:55;30.00;98.70
13817;DHT22;6979;52.116;5.286;2023-05-07T12:40:24;29.90;99.00
13817;DHT22;6979;52.116;5.286;2023-05-07T12:42:53;29.90;99.40
13817;DHT22;6979;52.116;5.286;2023-05-07T12:45:21;29.80;99.30
13817;DHT22;6979;52.116;5.286;2023-05-07T12:47:49;29.80;98.90
13817;DHT22;6979;52.116;5.286;2023-05-07T12:50:16;29.70;98.90
13817;DHT22;6979;52.116;5.286;2023-05-07T12:52:43;29.70;99.80
13817;DHT22;6979;52.116;5.286;2023-05-07T12:55:14;29.60;99.90
13817;DHT22;6979;52.116;5.286;2023-05-07T12:57:42;29.60;99.10
13817;DHT22;6979;52.116;5.286;2023-05-07T13:00:10;29.60;99.50
13817;DHT22;6979;52.116;5.286;2023-05-07T13:02:39;29.60;99.30
13817;DHT22;6979;52.116;5.286;2023-05-07T13:05:08;29.60;98.70
13817;DHT22;6979;52.116;5.286;2023-05-07T13:07:36;29.60;99.20
13817;DHT22;6979;52.116;5.286;2023-05-07T13:10:04;29.50;99.30
13817;DHT22;6979;52.116;5.286;2023-05-07T13:12:31;29.40;98.10
13817;DHT22;6979;52.116;5.286;2023-05-07T13:14:58;29.30;98.30
13817;DHT22;6979;52.116;5.286;2023-05-07T13:17:25;29.20;98.50
13817;DHT22;6979;52.116;5.286;2023-05-07T13:19:52;29.10;98.60
13817;DHT22;6979;52.116;5.286;2023-05-07T13:22:20;29.00;98.20
13817;DHT22;6979;52.116;5.286;2023-05-07T13:24:47;28.90;98.30
13817;DHT22;6979;52.116;5.286;2023-05-07T13:27:14;28.80;98.60
13817;DHT22;6979;52.116;5.286;2023-05-07T13:29:41;28.70;99.10
13817;DHT22;6979;52.116;5.286;2023-05-07T13:32:07;28.60;99.00
13817;DHT22;6979;52.116;5.286;2023-05-07T13:34:34;28.50;98.50
13817;DHT22;6979;52.116;5.286;2023-05-07T13:37:02;28.40;97.60
13817;DHT22;6979;52.116;5.286;2023-05-07T13:39:30;28.30;96.60
13817;DHT22;6979;52.116;5.286;2023-05-07T13:41:57;28.20;96.90
13817;DHT22;6979;52.116;5.286;2023-05-07T13:44:24;28.10;97.40
13817;DHT22;6979;52.116;5.286;2023-05-07T13:46:51;28.00;97.70
13817;DHT22;6979;52.116;5.286;2023-05-07T13:49:17;27.90;98.00
13817;DHT22;6979;52.116;5.286;2023-05-07T13:51:44;27.80;98.10
13817;DHT22;6979;52.116;5.286;2023-05-07T13:54:13;27.80;97.70
13817;DHT22;6979;52.116;5.286;2023-05-07T13:56:45;27.80;98.00
13817;DHT22;6979;52.116;5.286;2023-05-07T13:59:14;27.70;97.70
13817;DHT22;6979;52.116;5.286;2023-05-07T14:01:41;27.70;97.90
13817;DHT22;6979;52.116;5.286;2023-05-07T14:04:09;27.70;97.50
13817;DHT22;6979;52.116;5.286;2023-05-07T14:06:36;27.60;97.80
13817;DHT22;6979;52.116;5.286;2023-05-07T14:09:04;27.60;97.40
13817;DHT22;6979;52.116;5.286;2023-05-07T14:11:31;27.50;97.50
13817;DHT22;6979;52.116;5.286;2023-05-07T14:13:59;27.50;98.20
13817;DHT22;6979;52.116;5.286;2023-05-07T14:16:26;27.40;98.40
13817;DHT22;6979;52.116;5.286;2023-05-07T14:18:53;27.40;98.80
13817;DHT22;6979;52.116;5.286;2023-05-07T14:21:22;27.40;98.70
13817;DHT22;6979;52.116;5.286;2023-05-07T14:23:49;27.40;98.40
13817;DHT22;6979;52.116;5.286;2023-05-07T14:26:16;27.40;98.80
13817;DHT22;6979;52.116;5.286;2023-05-07T14:28:43;27.40;99.10
13817;DHT22;6979;52.116;5.286;2023-05-07T14:31:13;27.40;99.40
13817;DHT22;6979;52.116;5.286;2023-05-07T14:33:40;27.40;99.60
13817;DHT22;6979;52.116;5.286;2023-05-07T14:36:07;27.40;99.80
13817;DHT22;6979;52.116;5.286;2023-05-07T14:38:34;27.40;99.80
13817;DHT22;6979;52.116;5.286;2023-05-07T14:41:03;27.40;99.90
13817;DHT22;6979;52.116;5.286;2023-05-07T14:43:30;27.40;99.90
13817;DHT22;6979;52.116;5.286;2023-05-07T14:45:59;27.30;99.90
13817;DHT22;6979;52.116;5.286;2023-05-07T14:48:27;27.30;99.90
13817;DHT22;6979;52.116;5.286;2023-05-07T14:50:54;27.30;99.90
13817;DHT22;6979;52.116;5.286;2023-05-07T14:53:22;27.30;99.90
13817;DHT22;6979;52.116;5.286;2023-05-07T14:55:49;27.20;99.90
13817;DHT22;6979;52.116;5.286;2023-05-07T14:58:16;27.10;99.90
13817;DHT22;6979;52.116;5.286;2023-05-07T15:00:43;27.10;99.90
13817;DHT22;6979;52.116;5.286;2023-05-07T15:03:10;27.00;99.90
13817;DHT22;6979;52.116;5.286;2023-05-07T15:05:41;27.00;99.90
13817;DHT22;6979;52.116;5.286;2023-05-07T15:08:08;26.90;99.90
13817;DHT22;6979;52.116;5.286;2023-05-07T15:10:36;26.80;99.90
13817;DHT22;6979;52.116;5.286;2023-05-07T15:13:06;26.70;99.90
13817;DHT22;6979;52.116;5.286;2023-05-07T15:15:33;26.50;99.90
13817;DHT22;6979;52.116;5.286;2023-05-07T15:18:01;26.40;99.90
13817;DHT22;6979;52.116;5.286;2023-05-07T15:20:28;26.20;99.90
13817;DHT22;6979;52.116;5.286;2023-05-07T15:22:57;26.00;99.90
13817;DHT22;6979;52.116;5.286;2023-05-07T15:25:24;25.70;99.90
13817;DHT22;6979;52.116;5.286;2023-05-07T15:27:50;25.40;99.90
13817;DHT22;6979;52.116;5.286;2023-05-07T15:30:18;25.20;99.90
13817;DHT22;6979;52.116;5.286;2023-05-07T15:32:45;24.90;99.90
13817;DHT22;6979;52.116;5.286;2023-05-07T15:35:12;24.70;99.90
13817;DHT22;6979;52.116;5.286;2023-05-07T15:37:39;24.30;99.90
13817;DHT22;6979;52.116;5.286;2023-05-07T15:40:09;23.90;99.90
13817;DHT22;6979;52.116;5.286;2023-05-07T15:42:36;23.60;99.90
13817;DHT22;6979;52.116;5.286;2023-05-07T15:45:04;23.40;99.90
13817;DHT22;6979;52.116;5.286;2023-05-07T15:47:33;23.30;99.90
13817;DHT22;6979;52.116;5.286;2023-05-07T15:50:00;23.30;99.90
13817;DHT22;6979;52.116;5.286;2023-05-07T15:52:27;23.30;99.90
13817;DHT22;6979;52.116;5.286;2023-05-07T15:54:55;23.40;99.90
13817;DHT22;6979;52.116;5.286;2023-05-07T15:57:24;23.20;99.90